createdAt,value
2018-10-03T00:00:07.247Z,9.93
2018-10-03T00:02:35.554Z,9.37
2018-10-03T00:05:12.137Z,6.47
2018-10-03T00:07:40.046Z,6.63
2018-10-03T00:10:08.115Z,6.00
2018-10-03T00:12:36.937Z,6.03
2018-10-03T00:15:05.919Z,7.47
2018-10-03T00:17:33.830Z,8.87
2018-10-03T00:20:01.814Z,9.23
2018-10-03T00:22:29.791Z,7.13
2018-10-03T00:24:59.603Z,5.73
2018-10-03T00:27:28.642Z,6.27
2018-10-03T00:29:56.639Z,6.93
2018-10-03T00:32:24.566Z,4.90
2018-10-03T00:34:55.696Z,10.13
2018-10-03T00:37:24.515Z,6.30
2018-10-03T00:39:53.097Z,5.83
2018-10-03T00:42:21.321Z,5.83
2018-10-03T00:44:52.644Z,8.00
2018-10-03T00:47:20.504Z,5.90
2018-10-03T00:49:48.509Z,8.70
2018-10-03T00:52:16.576Z,6.67
2018-10-03T00:54:53.721Z,8.13
2018-10-03T00:57:21.765Z,6.70
2018-10-03T00:59:49.642Z,9.83
2018-10-03T01:02:17.675Z,8.30
2018-10-03T01:04:46.153Z,5.50
2018-10-03T01:07:14.043Z,8.50
2018-10-03T01:09:41.968Z,5.70
2018-10-03T01:12:09.902Z,8.30
2018-10-03T01:14:39.861Z,11.00
2018-10-03T01:17:07.831Z,7.80
2018-10-03T01:19:35.694Z,8.77
2018-10-03T01:22:03.633Z,8.00
2018-10-03T01:24:31.777Z,7.13
2018-10-03T01:26:59.628Z,5.57
2018-10-03T01:29:28.287Z,9.23
2018-10-03T01:31:56.217Z,12.10
2018-10-03T01:34:24.134Z,7.07
2018-10-03T01:36:52.094Z,7.67
2018-10-03T01:39:20.013Z,10.20
2018-10-03T01:41:47.956Z,9.70
2018-10-03T01:44:15.929Z,11.50
2018-10-03T01:46:43.811Z,8.17
2018-10-03T01:49:11.869Z,7.03
2018-10-03T01:51:40.556Z,4.93
2018-10-03T01:54:08.565Z,8.47
2018-10-03T01:56:36.582Z,8.07
2018-10-03T01:59:05.091Z,9.57
2018-10-03T02:01:32.981Z,9.20
2018-10-03T02:04:00.857Z,7.67
2018-10-03T02:06:28.855Z,8.87
2018-10-03T02:08:56.806Z,5.70
2018-10-03T02:11:24.897Z,8.30
2018-10-03T02:14:05.663Z,8.37
2018-10-03T02:16:33.545Z,7.93
2018-10-03T02:19:01.475Z,11.37
2018-10-03T02:21:29.683Z,11.07
2018-10-03T02:23:57.895Z,7.80
2018-10-03T02:26:26.817Z,9.20
2018-10-03T02:28:54.767Z,11.47
2018-10-03T02:31:22.642Z,8.77
2018-10-03T02:34:00.091Z,11.23
2018-10-03T02:36:28.197Z,8.97
2018-10-03T02:38:56.128Z,9.97
2018-10-03T02:41:24.057Z,9.87
2018-10-03T02:43:58.679Z,12.77
2018-10-03T02:46:26.689Z,10.03
2018-10-03T02:48:54.571Z,11.07
2018-10-03T02:51:22.491Z,13.00
2018-10-03T02:53:54.391Z,10.97
2018-10-03T02:56:22.261Z,6.13
2018-10-03T02:58:50.127Z,7.57
2018-10-03T03:01:18.011Z,5.83
2018-10-03T03:03:47.888Z,7.83
2018-10-03T03:06:15.787Z,8.07
2018-10-03T03:08:43.795Z,6.53
2018-10-03T03:11:11.675Z,9.10
2018-10-03T03:13:41.561Z,10.20
2018-10-03T03:16:09.735Z,9.57
2018-10-03T03:18:37.629Z,6.07
2018-10-03T03:21:05.606Z,6.77
2018-10-03T03:23:33.547Z,7.87
2018-10-03T03:26:01.486Z,7.53
2018-10-03T03:28:29.955Z,10.13
2018-10-03T03:30:57.839Z,8.27
2018-10-03T03:33:31.357Z,7.73
2018-10-03T03:35:59.510Z,13.20
2018-10-03T03:38:27.509Z,8.83
2018-10-03T03:40:55.515Z,11.23
2018-10-03T03:43:24.479Z,7.30
2018-10-03T03:45:52.615Z,11.00
2018-10-03T03:48:20.485Z,8.47
2018-10-03T03:50:48.510Z,9.07
2018-10-03T03:53:28.709Z,7.53
2018-10-03T03:55:57.422Z,10.93
2018-10-03T03:58:25.266Z,9.30
2018-10-03T04:00:53.240Z,12.47
2018-10-03T04:03:24.618Z,7.60
2018-10-03T04:05:52.682Z,10.53
2018-10-03T04:08:20.653Z,13.53
2018-10-03T04:10:49.643Z,7.83
2018-10-03T04:13:19.531Z,6.33
2018-10-03T04:15:47.559Z,8.33
2018-10-03T04:18:18.057Z,7.93
2018-10-03T04:20:46.061Z,10.53
2018-10-03T04:23:21.677Z,10.90
2018-10-03T04:25:49.595Z,7.97
2018-10-03T04:28:17.681Z,9.20
2018-10-03T04:30:46.179Z,8.63
2018-10-03T04:33:23.627Z,8.10
2018-10-03T04:35:51.447Z,7.73
2018-10-03T04:38:19.353Z,6.57
2018-10-03T04:40:47.237Z,7.77
2018-10-03T04:43:15.096Z,7.27
2018-10-03T04:45:42.912Z,8.70
2018-10-03T04:48:10.779Z,16.23
2018-10-03T04:50:38.632Z,14.77
2018-10-03T04:53:12.197Z,13.50
2018-10-03T04:55:40.170Z,15.90
2018-10-03T04:58:09.920Z,11.47
2018-10-03T05:00:49.387Z,11.00
2018-10-03T05:03:23.033Z,8.20
2018-10-03T05:05:52.613Z,11.33
2018-10-03T05:08:26.819Z,14.27
2018-10-03T05:10:54.929Z,11.23
2018-10-03T05:13:29.869Z,9.83
2018-10-03T05:16:02.193Z,9.53
2018-10-03T05:18:31.238Z,8.20
2018-10-03T05:20:59.529Z,8.73
2018-10-03T05:23:28.427Z,11.50
2018-10-03T05:25:56.354Z,7.90
2018-10-03T05:28:25.115Z,13.87
2018-10-03T05:30:53.304Z,12.70
2018-10-03T05:33:21.761Z,14.23
2018-10-03T05:35:49.704Z,11.63
2018-10-03T05:38:17.867Z,9.30
2018-10-03T05:40:45.939Z,12.63
2018-10-03T05:43:24.102Z,13.23
2018-10-03T05:45:52.182Z,10.33
2018-10-03T05:48:21.869Z,13.70
2018-10-03T05:50:49.888Z,10.53
2018-10-03T05:53:24.325Z,13.10
2018-10-03T05:55:53.062Z,16.47
2018-10-03T05:58:20.998Z,18.43
2018-10-03T06:00:49.141Z,15.03
2018-10-03T06:03:22.651Z,20.77
2018-10-03T06:05:50.798Z,16.83
2018-10-03T06:08:19.405Z,14.10
2018-10-03T06:10:47.437Z,15.60
2018-10-03T06:13:21.467Z,13.80
2018-10-03T06:15:49.517Z,15.27
2018-10-03T06:18:17.391Z,13.50
2018-10-03T06:20:45.382Z,13.13
2018-10-03T06:23:16.741Z,14.90
2018-10-03T06:25:44.739Z,20.40
2018-10-03T06:28:12.774Z,18.07
2018-10-03T06:30:40.950Z,16.77
2018-10-03T06:33:08.959Z,20.70
2018-10-03T06:35:36.998Z,17.57
2018-10-03T06:38:04.917Z,13.60
2018-10-03T06:40:33.166Z,17.37
2018-10-03T06:43:08.653Z,18.17
2018-10-03T06:45:36.773Z,19.50
2018-10-03T06:48:04.731Z,23.20
2018-10-03T06:50:32.653Z,18.50
2018-10-03T06:53:01.889Z,16.23
2018-10-03T06:55:29.815Z,19.50
2018-10-03T06:57:57.735Z,18.17
2018-10-03T07:00:25.645Z,17.47
2018-10-03T07:02:54.466Z,17.87
2018-10-03T07:05:34.986Z,15.60
2018-10-03T07:08:02.909Z,19.67
2018-10-03T07:10:30.891Z,17.57
2018-10-03T07:12:58.862Z,20.73
2018-10-03T07:15:27.815Z,20.03
2018-10-03T07:17:55.909Z,17.80
2018-10-03T07:20:23.850Z,22.60
2018-10-03T07:22:51.877Z,17.50
2018-10-03T07:25:38.533Z,23.00
2018-10-03T07:28:06.719Z,16.17
2018-10-03T07:30:34.665Z,21.07
2018-10-03T07:33:08.600Z,22.60
2018-10-03T07:35:36.575Z,23.30
2018-10-03T07:38:04.473Z,19.40
2018-10-03T07:40:32.745Z,18.13
2018-10-03T07:43:00.704Z,18.73
2018-10-03T07:45:28.593Z,19.57
2018-10-03T07:47:56.509Z,16.73
2018-10-03T07:50:24.632Z,22.07
2018-10-03T07:52:52.937Z,18.73
2018-10-03T07:55:20.884Z,19.87
2018-10-03T07:57:48.845Z,20.57
2018-10-03T08:00:23.637Z,18.30
2018-10-03T08:02:51.687Z,16.83
2018-10-03T08:05:24.064Z,20.43
2018-10-03T08:07:52.136Z,20.00
2018-10-03T08:10:20.117Z,20.27
2018-10-03T08:12:48.256Z,17.33
2018-10-03T08:15:36.269Z,20.97
2018-10-03T08:18:04.459Z,21.37
2018-10-03T08:20:32.448Z,20.37
2018-10-03T08:23:00.446Z,20.27
2018-10-03T08:25:28.393Z,17.43
2018-10-03T08:27:56.361Z,22.63
2018-10-03T08:30:24.674Z,18.30
2018-10-03T08:32:52.879Z,23.47
2018-10-03T08:35:32.047Z,21.37
2018-10-03T08:38:00.081Z,17.10
2018-10-03T08:40:27.935Z,19.40
2018-10-03T08:42:55.826Z,16.57
2018-10-03T08:45:23.826Z,19.27
2018-10-03T08:47:51.976Z,14.63
2018-10-03T08:50:20.285Z,17.80
2018-10-03T08:52:48.164Z,16.27
2018-10-03T08:55:23.456Z,21.53
2018-10-03T08:57:51.466Z,18.20
2018-10-03T09:00:19.424Z,15.20
2018-10-03T09:02:47.484Z,14.23
2018-10-03T09:05:26.588Z,13.83
2018-10-03T09:08:04.642Z,20.83
2018-10-03T09:10:33.231Z,13.83
2018-10-03T09:13:02.097Z,17.93
2018-10-03T09:15:30.012Z,14.00
2018-10-03T09:17:58.008Z,16.40
2018-10-03T09:20:26.186Z,19.83
2018-10-03T09:22:54.314Z,19.43
2018-10-03T09:25:22.554Z,15.97
2018-10-03T09:27:50.607Z,12.87
2018-10-03T09:30:18.536Z,13.10
2018-10-03T09:32:47.554Z,17.80
2018-10-03T09:35:28.899Z,15.43
2018-10-03T09:37:56.920Z,13.03
2018-10-03T09:40:24.912Z,14.13
2018-10-03T09:42:53.066Z,14.13
2018-10-03T09:45:21.188Z,15.87
2018-10-03T09:47:49.156Z,13.83
2018-10-03T09:50:17.246Z,10.10
2018-10-03T09:52:45.332Z,15.93
2018-10-03T09:55:13.348Z,16.53
2018-10-03T09:57:42.357Z,20.93
2018-10-03T10:00:10.437Z,17.13
2018-10-03T10:02:38.366Z,19.53
2018-10-03T10:05:07.467Z,13.63
2018-10-03T10:07:35.543Z,11.37
2018-10-03T10:10:03.631Z,14.97
2018-10-03T10:12:32.078Z,11.37
2018-10-03T10:15:03.749Z,14.70
2018-10-03T10:17:31.661Z,14.17
2018-10-03T10:20:01.489Z,17.70
2018-10-03T10:22:29.867Z,11.03
2018-10-03T10:25:22.244Z,14.93
2018-10-03T10:27:53.285Z,10.50
2018-10-03T10:30:21.903Z,10.47
2018-10-03T10:32:50.346Z,15.00
2018-10-03T10:35:21.787Z,13.43
2018-10-03T10:37:49.890Z,13.40
2018-10-03T10:40:18.217Z,13.83
2018-10-03T10:42:46.227Z,14.17
2018-10-03T10:45:27.091Z,13.93
2018-10-03T10:47:55.324Z,15.23
2018-10-03T10:50:24.176Z,15.73
2018-10-03T10:52:52.342Z,11.50
2018-10-03T10:55:27.837Z,12.47
2018-10-03T10:57:58.533Z,14.87
2018-10-03T11:00:26.744Z,10.73
2018-10-03T11:02:56.871Z,15.70
2018-10-03T11:05:25.030Z,13.00
2018-10-03T11:07:53.700Z,11.20
2018-10-03T11:10:24.056Z,10.50
2018-10-03T11:18:02.729Z,12.47
2018-10-03T11:20:30.805Z,18.10
2018-10-03T11:22:59.152Z,12.93
2018-10-03T11:25:27.336Z,15.27
2018-10-03T11:27:56.230Z,13.17
2018-10-03T11:30:24.655Z,12.67
2018-10-03T11:32:53.769Z,12.87
2018-10-03T11:35:29.073Z,12.30
2018-10-03T11:37:57.339Z,14.23
2018-10-03T11:40:36.189Z,17.73
2018-10-03T11:43:18.877Z,9.77
2018-10-03T11:48:52.439Z,13.37
2018-10-03T11:51:31.541Z,13.23
2018-10-03T11:54:00.223Z,17.50
2018-10-03T11:56:28.493Z,11.47
2018-10-03T11:58:56.639Z,12.50
2018-10-03T12:01:29.709Z,12.80
2018-10-03T12:03:58.911Z,10.37
2018-10-03T12:06:26.804Z,8.67
2018-10-03T12:08:54.731Z,13.40
2018-10-03T12:11:22.815Z,11.33
2018-10-03T12:13:51.167Z,13.10
2018-10-03T12:16:19.011Z,14.23
2018-10-03T12:18:46.929Z,16.13
2018-10-03T12:21:14.751Z,12.10
2018-10-03T12:23:42.541Z,13.27
2018-10-03T12:26:10.392Z,11.67
2018-10-03T12:28:38.377Z,9.93
2018-10-03T12:31:06.217Z,12.37
2018-10-03T12:33:34.147Z,12.40
2018-10-03T12:36:02.024Z,14.00
2018-10-03T12:38:29.859Z,12.47
2018-10-03T12:40:57.736Z,14.20
2018-10-03T12:43:25.624Z,12.23
2018-10-03T12:45:53.397Z,12.20
2018-10-03T12:48:21.222Z,11.57
2018-10-03T12:50:49.045Z,11.00
2018-10-03T12:53:16.927Z,10.40
2018-10-03T12:55:44.838Z,15.37
2018-10-03T12:58:12.855Z,11.70
2018-10-03T13:00:40.728Z,11.87
2018-10-03T13:03:08.591Z,11.33
2018-10-03T13:05:36.397Z,10.20
2018-10-03T13:08:04.234Z,17.20
2018-10-03T13:10:33.075Z,14.87
2018-10-03T13:13:01.113Z,10.50
2018-10-03T13:15:29.757Z,14.47
2018-10-03T13:17:57.657Z,12.10
2018-10-03T13:20:25.579Z,11.23
2018-10-03T13:22:53.445Z,8.73
2018-10-03T13:25:21.234Z,11.93
2018-10-03T13:27:49.153Z,14.77
2018-10-03T13:30:16.969Z,14.07
2018-10-03T13:32:44.779Z,9.73
2018-10-03T13:35:16.355Z,11.33
2018-10-03T13:37:45.419Z,15.23
2018-10-03T13:40:28.969Z,12.73
2018-10-03T13:42:57.904Z,14.27
2018-10-03T13:45:25.802Z,15.33
2018-10-03T13:47:54.870Z,15.90
2018-10-03T13:50:22.851Z,10.40
2018-10-03T13:52:51.501Z,11.23
2018-10-03T13:55:20.448Z,13.23
2018-10-03T13:57:50.273Z,12.73
2018-10-03T14:00:18.169Z,12.53
2018-10-03T14:02:46.918Z,14.20
2018-10-03T14:05:17.301Z,16.07
2018-10-03T14:07:48.555Z,12.03
2018-10-03T14:10:17.981Z,12.47
2018-10-03T14:12:45.927Z,13.90
2018-10-03T14:15:20.072Z,10.67
2018-10-03T14:17:48.179Z,11.83
2018-10-03T14:20:16.088Z,12.27
2018-10-03T14:22:43.984Z,8.37
2018-10-03T14:25:11.878Z,14.90
2018-10-03T14:27:39.890Z,11.73
2018-10-03T14:30:07.821Z,9.87
2018-10-03T14:32:36.037Z,14.27
2018-10-03T14:35:05.916Z,11.33
2018-10-03T14:37:33.786Z,11.33
2018-10-03T14:40:04.813Z,11.23
2018-10-03T14:42:33.328Z,11.43
2018-10-03T14:45:03.242Z,13.03
2018-10-03T14:47:33.402Z,14.03
2018-10-03T14:50:04.144Z,9.60
2018-10-03T14:52:32.533Z,9.90
2018-10-03T14:55:01.051Z,10.03
2018-10-03T14:57:28.957Z,10.03
2018-10-03T14:59:57.045Z,10.40
2018-10-03T15:02:25.017Z,13.13
2018-10-03T15:04:56.054Z,13.87
2018-10-03T15:07:23.979Z,10.67
2018-10-03T15:09:51.931Z,8.80
2018-10-03T15:12:20.910Z,11.47
2018-10-03T15:14:50.918Z,14.07
2018-10-03T15:17:18.811Z,13.33
2018-10-03T15:19:46.708Z,12.33
2018-10-03T15:22:14.691Z,11.37
2018-10-03T15:24:48.142Z,8.80
2018-10-03T15:27:16.158Z,10.03
2018-10-03T15:29:44.061Z,10.37
2018-10-03T15:32:11.938Z,10.30
2018-10-03T15:34:39.840Z,13.00
2018-10-03T15:37:07.790Z,12.53
2018-10-03T15:39:35.734Z,9.33
2018-10-03T15:42:03.593Z,15.03
2018-10-03T15:44:31.496Z,16.63
2018-10-03T15:46:59.421Z,11.43
2018-10-03T15:49:27.241Z,10.90
2018-10-03T15:51:55.118Z,9.80
2018-10-03T15:54:22.957Z,10.50
2018-10-03T15:56:51.396Z,13.40
2018-10-03T15:59:19.284Z,8.70
2018-10-03T16:01:48.038Z,15.50
2018-10-03T16:04:18.029Z,8.70
2018-10-03T16:06:46.073Z,11.80
2018-10-03T16:09:14.708Z,12.63
2018-10-03T16:11:43.159Z,12.13
2018-10-03T16:14:11.862Z,11.13
2018-10-03T16:16:40.029Z,10.97
2018-10-03T16:19:08.287Z,9.53
2018-10-03T16:21:36.407Z,10.50
2018-10-03T16:24:04.444Z,8.77
2018-10-03T16:26:33.148Z,9.93
2018-10-03T16:29:01.439Z,10.90
2018-10-03T16:31:29.563Z,13.70
2018-10-03T16:33:57.717Z,11.23
2018-10-03T16:36:25.842Z,9.13
2018-10-03T16:38:53.927Z,8.47
2018-10-03T16:41:22.062Z,10.87
2018-10-03T16:43:49.959Z,8.97
2018-10-03T16:46:18.550Z,8.77
2018-10-03T16:48:47.400Z,8.70
2018-10-03T16:51:15.532Z,8.27
2018-10-03T16:53:46.744Z,8.33
2018-10-03T16:56:14.692Z,10.00
2018-10-03T16:58:42.722Z,8.80
2018-10-03T17:01:10.725Z,9.47
2018-10-03T17:03:38.675Z,7.53
2018-10-03T17:06:06.724Z,8.77
2018-10-03T17:08:34.857Z,11.77
2018-10-03T17:11:02.805Z,10.17
2018-10-03T17:13:30.909Z,9.50
2018-10-03T17:15:58.973Z,8.63
2018-10-03T17:18:26.907Z,8.20
2018-10-03T17:20:54.823Z,5.70
2018-10-03T17:23:22.754Z,12.33
2018-10-03T17:25:50.829Z,8.03
2018-10-03T17:28:18.745Z,7.53
2018-10-03T17:30:46.626Z,9.40
2018-10-03T17:33:14.663Z,6.43
2018-10-03T17:35:43.275Z,10.97
2018-10-03T17:38:11.237Z,12.30
2018-10-03T17:40:39.139Z,8.93
2018-10-03T17:43:07.401Z,10.77
2018-10-03T17:45:36.258Z,8.67
2018-10-03T17:48:05.005Z,10.73
2018-10-03T17:50:32.968Z,8.97
2018-10-03T17:53:00.919Z,6.83
2018-10-03T17:55:28.881Z,8.10
2018-10-03T17:57:56.825Z,10.90
2018-10-03T18:00:24.714Z,11.57
2018-10-03T18:02:53.567Z,8.30
2018-10-03T18:05:21.636Z,15.10
2018-10-03T18:07:51.719Z,11.67
2018-10-03T18:10:20.605Z,12.23
2018-10-03T18:12:49.687Z,13.47
2018-10-03T18:15:17.889Z,13.57
2018-10-03T18:17:58.563Z,12.07
2018-10-03T18:20:26.888Z,12.73
2018-10-03T18:22:54.894Z,15.47
2018-10-03T18:25:22.951Z,10.67
2018-10-03T18:27:51.343Z,13.70
2018-10-03T18:30:19.184Z,10.33
2018-10-03T18:32:47.096Z,11.07
2018-10-03T18:35:14.907Z,14.07
2018-10-03T18:37:42.925Z,11.80
2018-10-03T18:40:10.937Z,9.87
2018-10-03T18:42:38.918Z,10.00
2018-10-03T18:45:08.923Z,17.00
2018-10-03T18:47:37.940Z,10.53
2018-10-03T18:50:06.187Z,12.70
2018-10-03T18:52:34.130Z,11.77
2018-10-03T18:55:02.143Z,13.00
2018-10-03T18:57:31.042Z,13.17
2018-10-03T18:59:59.261Z,13.97
2018-10-03T19:02:27.665Z,11.97
2018-10-03T19:04:55.711Z,11.67
2018-10-03T19:07:23.828Z,12.07
2018-10-03T19:09:52.253Z,12.17
2018-10-03T19:12:20.420Z,10.43
2018-10-03T19:14:48.617Z,9.77
2018-10-03T19:17:16.574Z,10.67
2018-10-03T19:19:45.395Z,13.20
2018-10-03T19:22:13.570Z,13.63
2018-10-03T19:24:43.236Z,15.07
2018-10-03T19:27:11.847Z,13.83
2018-10-03T19:29:40.154Z,13.07
2018-10-03T19:32:09.419Z,10.50
2018-10-03T19:34:37.441Z,10.60
2018-10-03T19:37:05.363Z,14.07
2018-10-03T19:39:33.591Z,12.60
2018-10-03T19:42:01.684Z,15.37
2018-10-03T19:44:29.828Z,12.67
2018-10-03T19:46:58.103Z,14.30
2018-10-03T19:49:26.223Z,13.37
2018-10-03T19:51:54.686Z,13.10
2018-10-03T19:54:22.790Z,13.07
2018-10-03T19:56:50.864Z,15.43
2018-10-03T19:59:19.411Z,12.77
2018-10-03T20:01:47.652Z,10.93
2018-10-03T20:04:16.065Z,14.20
2018-10-03T20:06:44.253Z,13.13
2018-10-03T20:09:12.366Z,14.30
2018-10-03T20:11:40.693Z,16.50
2018-10-03T20:14:12.488Z,16.97
2018-10-03T20:16:41.009Z,16.10
2018-10-03T20:19:09.444Z,11.37
2018-10-03T20:21:38.897Z,11.63
2018-10-03T20:24:06.965Z,9.00
2018-10-03T20:26:35.356Z,17.90
2018-10-03T20:29:03.774Z,12.20
2018-10-03T20:31:32.342Z,10.10
2018-10-03T20:34:01.091Z,14.07
2018-10-03T20:36:29.825Z,12.57
2018-10-03T20:38:58.625Z,16.97
2018-10-03T20:41:27.104Z,11.33
2018-10-03T20:43:55.460Z,12.40
2018-10-03T20:46:23.865Z,10.67
2018-10-03T20:48:52.970Z,15.37
2018-10-03T20:51:21.373Z,10.57
2018-10-03T20:53:49.836Z,12.60
2018-10-03T20:56:18.290Z,11.13
2018-10-03T20:58:46.490Z,13.57
2018-10-03T21:01:15.646Z,9.77
2018-10-03T21:03:44.180Z,11.40
2018-10-03T21:06:12.627Z,14.53
2018-10-03T21:08:41.216Z,11.33
2018-10-03T21:11:09.845Z,10.83
2018-10-03T21:13:38.368Z,7.70
2018-10-03T21:16:06.868Z,13.23
2018-10-03T21:18:35.333Z,13.07
2018-10-03T21:21:03.912Z,11.40
2018-10-03T21:23:32.606Z,12.30
2018-10-03T21:26:00.934Z,11.80
2018-10-03T21:28:29.143Z,11.83
2018-10-03T21:30:57.228Z,13.20
2018-10-03T21:33:25.448Z,13.30
2018-10-03T21:35:53.573Z,12.30
2018-10-03T21:38:21.687Z,13.90
2018-10-03T21:40:49.561Z,17.30
2018-10-03T21:43:17.442Z,13.83
2018-10-03T21:45:45.725Z,12.70
2018-10-03T21:48:13.550Z,13.33
2018-10-03T21:50:41.376Z,15.73
2018-10-03T21:53:09.216Z,13.40
2018-10-03T21:55:37.021Z,18.57
2018-10-03T21:58:04.868Z,16.30
2018-10-03T22:00:38.212Z,15.20
2018-10-03T22:03:06.042Z,15.67
2018-10-03T22:05:33.844Z,15.97
2018-10-03T22:08:01.658Z,17.73
2018-10-03T22:10:29.551Z,19.33
2018-10-03T22:12:57.334Z,16.20
2018-10-03T22:15:25.286Z,14.33
2018-10-03T22:17:53.088Z,16.77
2018-10-03T22:20:20.912Z,14.37
2018-10-03T22:22:48.740Z,12.87
2018-10-03T22:25:16.602Z,16.13
2018-10-03T22:27:44.366Z,15.30
2018-10-03T22:30:12.135Z,14.57
2018-10-03T22:32:39.868Z,13.87
2018-10-03T22:35:07.668Z,15.27
2018-10-03T22:37:35.403Z,7.67
2018-10-03T22:40:03.216Z,13.13
2018-10-03T22:42:31.000Z,11.10
2018-10-03T22:44:58.848Z,12.27
2018-10-03T22:47:26.655Z,12.50
2018-10-03T22:49:54.904Z,9.17
2018-10-03T22:52:22.934Z,13.80
2018-10-03T22:54:50.759Z,10.10
2018-10-03T22:57:18.618Z,9.63
2018-10-03T22:59:46.382Z,8.60
2018-10-03T23:02:14.144Z,12.80
2018-10-03T23:04:41.943Z,10.30
2018-10-03T23:07:09.790Z,11.40
2018-10-03T23:09:37.758Z,12.90
2018-10-03T23:12:05.650Z,11.50
2018-10-03T23:14:33.489Z,10.17
2018-10-03T23:17:01.445Z,12.90
2018-10-03T23:19:29.238Z,8.47
2018-10-03T23:21:56.993Z,11.27
2018-10-03T23:24:24.781Z,9.37
2018-10-03T23:26:52.605Z,12.33
2018-10-03T23:29:20.373Z,11.43
2018-10-03T23:31:48.155Z,8.23
2018-10-03T23:34:15.935Z,9.70
2018-10-03T23:36:43.721Z,8.00
2018-10-03T23:39:12.145Z,9.63
2018-10-03T23:41:40.127Z,12.13
2018-10-03T23:44:14.537Z,12.83
2018-10-03T23:46:42.374Z,10.90
2018-10-03T23:49:10.156Z,9.53
2018-10-03T23:51:38.017Z,9.13
2018-10-03T23:54:05.823Z,12.53
2018-10-03T23:56:33.623Z,10.27
2018-10-03T23:59:01.527Z,8.83
